Terminal Aerodrome Forecast
Issued by NWS Huntsville, AL

Home | Current Version | Previous Version | Text Only | Print | Product List | Glossary On
Versions: 1 2 3 4 5 6 7 8 9 10 11 12 13 14 15 16 17 18 19 20 21 22 23 24 25 26 27
000
FTUS44 KHUN 251733
TAFHSV
TAF
KHSV 251733Z 2518/2618 16010KT P6SM SHRA BKN025 OVC040
     FM252000 16008KT P6SM SHRA VCTS SCT025CB SCT040 BKN110
     FM260200 17006KT P6SM BKN025
     FM260800 17008KT P6SM VCTS BKN015CB OVC025
     FM261600 18010G20KT P6SM OVC030=

USA.gov is the U.S. government's official web portal to all federal, state and local government web resources and services.